sensor_id;sensor_type;location;lat;lon;timestamp;P1;durP1;ratioP1;P2;durP2;ratioP2
46589;SDS011;32313;48.722;9.362;2023-02-26T00:01:18;12.70;;;11.80;;
46589;SDS011;32313;48.722;9.362;2023-02-26T00:03:53;12.07;;;11.37;;
46589;SDS011;32313;48.722;9.362;2023-02-26T00:06:20;12.47;;;11.53;;
46589;SDS011;32313;48.722;9.362;2023-02-26T00:08:46;13.07;;;12.07;;
46589;SDS011;32313;48.722;9.362;2023-02-26T00:11:12;12.93;;;11.93;;
46589;SDS011;32313;48.722;9.362;2023-02-26T00:13:39;13.57;;;12.60;;
46589;SDS011;32313;48.722;9.362;2023-02-26T00:18:53;12.80;;;12.00;;
46589;SDS011;32313;48.722;9.362;2023-02-26T00:21:20;12.97;;;12.17;;
46589;SDS011;32313;48.722;9.362;2023-02-26T00:23:47;12.27;;;11.57;;
46589;SDS011;32313;48.722;9.362;2023-02-26T00:26:13;13.23;;;12.33;;
46589;SDS011;32313;48.722;9.362;2023-02-26T00:28:39;13.20;;;12.37;;
46589;SDS011;32313;48.722;9.362;2023-02-26T00:31:05;13.87;;;13.03;;
46589;SDS011;32313;48.722;9.362;2023-02-26T00:33:31;13.40;;;12.50;;
46589;SDS011;32313;48.722;9.362;2023-02-26T00:41:28;13.13;;;12.40;;
46589;SDS011;32313;48.722;9.362;2023-02-26T00:43:54;13.23;;;12.33;;
46589;SDS011;32313;48.722;9.362;2023-02-26T00:46:21;13.17;;;12.23;;
46589;SDS011;32313;48.722;9.362;2023-02-26T00:49:02;13.80;;;12.90;;
46589;SDS011;32313;48.722;9.362;2023-02-26T00:51:57;13.60;;;12.70;;
46589;SDS011;32313;48.722;9.362;2023-02-26T00:54:27;13.70;;;12.70;;
46589;SDS011;32313;48.722;9.362;2023-02-26T00:56:54;12.90;;;12.00;;
46589;SDS011;32313;48.722;9.362;2023-02-26T00:59:21;13.80;;;12.90;;
46589;SDS011;32313;48.722;9.362;2023-02-26T01:01:48;14.23;;;13.17;;
46589;SDS011;32313;48.722;9.362;2023-02-26T01:04:15;13.50;;;12.60;;
46589;SDS011;32313;48.722;9.362;2023-02-26T01:06:47;13.30;;;12.40;;
46589;SDS011;32313;48.722;9.362;2023-02-26T01:09:27;13.43;;;12.67;;
46589;SDS011;32313;48.722;9.362;2023-02-26T01:11:56;13.90;;;12.60;;
46589;SDS011;32313;48.722;9.362;2023-02-26T01:14:25;14.10;;;13.17;;
46589;SDS011;32313;48.722;9.362;2023-02-26T01:16:54;13.23;;;12.13;;
46589;SDS011;32313;48.722;9.362;2023-02-26T01:22:39;12.77;;;11.87;;
46589;SDS011;32313;48.722;9.362;2023-02-26T01:25:10;12.33;;;11.53;;
46589;SDS011;32313;48.722;9.362;2023-02-26T01:27:38;12.73;;;12.00;;
46589;SDS011;32313;48.722;9.362;2023-02-26T01:30:05;13.70;;;12.80;;
46589;SDS011;32313;48.722;9.362;2023-02-26T01:35:16;13.13;;;12.23;;
46589;SDS011;32313;48.722;9.362;2023-02-26T01:37:49;13.40;;;12.50;;
46589;SDS011;32313;48.722;9.362;2023-02-26T01:43:06;13.90;;;13.10;;
46589;SDS011;32313;48.722;9.362;2023-02-26T01:45:38;13.80;;;12.90;;
46589;SDS011;32313;48.722;9.362;2023-02-26T01:48:17;12.93;;;12.23;;
46589;SDS011;32313;48.722;9.362;2023-02-26T01:51:06;14.20;;;13.40;;
46589;SDS011;32313;48.722;9.362;2023-02-26T01:53:33;13.50;;;12.60;;
46589;SDS011;32313;48.722;9.362;2023-02-26T01:56:00;14.97;;;13.77;;
46589;SDS011;32313;48.722;9.362;2023-02-26T01:58:30;14.27;;;13.47;;
46589;SDS011;32313;48.722;9.362;2023-02-26T02:00:58;14.20;;;13.30;;
46589;SDS011;32313;48.722;9.362;2023-02-26T02:03:25;15.23;;;14.33;;
46589;SDS011;32313;48.722;9.362;2023-02-26T02:05:56;14.77;;;13.80;;
46589;SDS011;32313;48.722;9.362;2023-02-26T02:08:26;14.97;;;14.00;;
46589;SDS011;32313;48.722;9.362;2023-02-26T02:10:53;15.17;;;14.07;;
46589;SDS011;32313;48.722;9.362;2023-02-26T02:18:42;15.00;;;14.00;;
46589;SDS011;32313;48.722;9.362;2023-02-26T02:29:34;15.73;;;14.63;;
46589;SDS011;32313;48.722;9.362;2023-02-26T02:32:09;15.40;;;14.30;;
46589;SDS011;32313;48.722;9.362;2023-02-26T02:34:48;16.20;;;15.30;;
46589;SDS011;32313;48.722;9.362;2023-02-26T02:38:07;16.17;;;15.17;;
46589;SDS011;32313;48.722;9.362;2023-02-26T02:41:02;16.23;;;15.23;;
46589;SDS011;32313;48.722;9.362;2023-02-26T02:43:36;15.47;;;14.67;;
46589;SDS011;32313;48.722;9.362;2023-02-26T02:46:06;16.50;;;15.60;;
46589;SDS011;32313;48.722;9.362;2023-02-26T02:48:37;16.20;;;14.93;;
46589;SDS011;32313;48.722;9.362;2023-02-26T02:51:16;16.10;;;15.10;;
46589;SDS011;32313;48.722;9.362;2023-02-26T02:53:55;16.57;;;15.57;;
46589;SDS011;32313;48.722;9.362;2023-02-26T02:56:34;16.80;;;15.80;;
46589;SDS011;32313;48.722;9.362;2023-02-26T02:59:13;16.00;;;14.90;;
46589;SDS011;32313;48.722;9.362;2023-02-26T03:01:43;16.87;;;15.87;;
46589;SDS011;32313;48.722;9.362;2023-02-26T03:04:10;15.37;;;14.40;;
46589;SDS011;32313;48.722;9.362;2023-02-26T03:06:39;16.87;;;15.73;;
46589;SDS011;32313;48.722;9.362;2023-02-26T03:09:07;16.43;;;15.37;;
46589;SDS011;32313;48.722;9.362;2023-02-26T03:11:34;16.83;;;15.67;;
46589;SDS011;32313;48.722;9.362;2023-02-26T03:14:00;16.10;;;15.10;;
46589;SDS011;32313;48.722;9.362;2023-02-26T03:22:14;17.97;;;16.97;;
46589;SDS011;32313;48.722;9.362;2023-02-26T03:25:45;17.37;;;16.30;;
46589;SDS011;32313;48.722;9.362;2023-02-26T03:30:35;18.13;;;16.93;;
46589;SDS011;32313;48.722;9.362;2023-02-26T03:33:37;17.10;;;16.10;;
46589;SDS011;32313;48.722;9.362;2023-02-26T03:39:00;18.27;;;16.70;;
46589;SDS011;32313;48.722;9.362;2023-02-26T03:44:27;17.03;;;16.03;;
46589;SDS011;32313;48.722;9.362;2023-02-26T03:46:55;18.50;;;17.30;;
46589;SDS011;32313;48.722;9.362;2023-02-26T03:49:30;17.53;;;16.07;;
46589;SDS011;32313;48.722;9.362;2023-02-26T03:51:59;17.33;;;16.20;;
46589;SDS011;32313;48.722;9.362;2023-02-26T03:57:57;17.80;;;16.80;;
46589;SDS011;32313;48.722;9.362;2023-02-26T04:00:35;20.30;;;17.07;;
46589;SDS011;32313;48.722;9.362;2023-02-26T04:05:38;19.20;;;18.00;;
46589;SDS011;32313;48.722;9.362;2023-02-26T04:08:07;18.47;;;17.10;;
46589;SDS011;32313;48.722;9.362;2023-02-26T04:10:34;17.73;;;16.63;;
46589;SDS011;32313;48.722;9.362;2023-02-26T04:13:07;18.50;;;17.30;;
46589;SDS011;32313;48.722;9.362;2023-02-26T04:15:33;18.70;;;17.50;;
46589;SDS011;32313;48.722;9.362;2023-02-26T04:17:58;18.53;;;17.43;;
46589;SDS011;32313;48.722;9.362;2023-02-26T04:20:25;18.53;;;17.10;;
46589;SDS011;32313;48.722;9.362;2023-02-26T04:22:52;16.50;;;15.40;;
46589;SDS011;32313;48.722;9.362;2023-02-26T04:25:21;17.90;;;16.63;;
46589;SDS011;32313;48.722;9.362;2023-02-26T04:27:47;18.10;;;16.80;;
46589;SDS011;32313;48.722;9.362;2023-02-26T04:30:13;18.03;;;16.93;;
46589;SDS011;32313;48.722;9.362;2023-02-26T04:32:39;18.00;;;16.80;;
46589;SDS011;32313;48.722;9.362;2023-02-26T04:35:06;18.03;;;16.83;;
46589;SDS011;32313;48.722;9.362;2023-02-26T04:37:32;17.93;;;16.73;;
46589;SDS011;32313;48.722;9.362;2023-02-26T04:39:57;17.17;;;15.97;;
46589;SDS011;32313;48.722;9.362;2023-02-26T04:42:23;18.33;;;17.13;;
46589;SDS011;32313;48.722;9.362;2023-02-26T04:44:49;17.83;;;16.83;;
46589;SDS011;32313;48.722;9.362;2023-02-26T04:47:15;17.83;;;16.80;;
46589;SDS011;32313;48.722;9.362;2023-02-26T04:49:41;18.77;;;17.67;;
46589;SDS011;32313;48.722;9.362;2023-02-26T04:52:07;18.03;;;16.80;;
46589;SDS011;32313;48.722;9.362;2023-02-26T04:54:33;18.13;;;16.83;;
46589;SDS011;32313;48.722;9.362;2023-02-26T04:56:59;19.07;;;17.77;;
46589;SDS011;32313;48.722;9.362;2023-02-26T04:59:25;16.90;;;15.73;;
46589;SDS011;32313;48.722;9.362;2023-02-26T05:01:51;17.00;;;15.90;;
46589;SDS011;32313;48.722;9.362;2023-02-26T05:04:16;17.27;;;15.93;;
46589;SDS011;32313;48.722;9.362;2023-02-26T05:06:46;18.10;;;16.70;;
46589;SDS011;32313;48.722;9.362;2023-02-26T05:09:12;18.47;;;17.00;;
46589;SDS011;32313;48.722;9.362;2023-02-26T05:11:38;17.73;;;16.37;;
46589;SDS011;32313;48.722;9.362;2023-02-26T05:14:05;17.50;;;16.00;;
46589;SDS011;32313;48.722;9.362;2023-02-26T05:16:31;17.70;;;16.60;;
46589;SDS011;32313;48.722;9.362;2023-02-26T05:18:56;17.37;;;16.27;;
46589;SDS011;32313;48.722;9.362;2023-02-26T05:21:22;16.87;;;15.80;;
46589;SDS011;32313;48.722;9.362;2023-02-26T05:23:48;16.83;;;15.73;;
46589;SDS011;32313;48.722;9.362;2023-02-26T05:26:13;16.97;;;15.73;;
46589;SDS011;32313;48.722;9.362;2023-02-26T05:28:39;17.43;;;16.27;;
46589;SDS011;32313;48.722;9.362;2023-02-26T05:31:05;16.10;;;14.97;;
46589;SDS011;32313;48.722;9.362;2023-02-26T05:33:31;18.20;;;17.00;;
46589;SDS011;32313;48.722;9.362;2023-02-26T05:35:57;17.17;;;15.90;;
46589;SDS011;32313;48.722;9.362;2023-02-26T05:38:22;16.80;;;15.80;;
46589;SDS011;32313;48.722;9.362;2023-02-26T05:40:48;17.33;;;16.20;;
46589;SDS011;32313;48.722;9.362;2023-02-26T05:43:14;19.47;;;18.17;;
46589;SDS011;32313;48.722;9.362;2023-02-26T05:45:40;18.17;;;16.97;;
46589;SDS011;32313;48.722;9.362;2023-02-26T05:48:05;17.70;;;16.50;;
46589;SDS011;32313;48.722;9.362;2023-02-26T05:50:31;18.13;;;16.80;;
46589;SDS011;32313;48.722;9.362;2023-02-26T05:53:00;17.43;;;16.43;;
46589;SDS011;32313;48.722;9.362;2023-02-26T05:55:26;19.00;;;17.47;;
46589;SDS011;32313;48.722;9.362;2023-02-26T05:57:51;18.23;;;16.70;;
46589;SDS011;32313;48.722;9.362;2023-02-26T06:00:17;18.53;;;17.13;;
46589;SDS011;32313;48.722;9.362;2023-02-26T06:02:43;18.17;;;16.87;;
46589;SDS011;32313;48.722;9.362;2023-02-26T06:05:09;18.50;;;17.30;;
46589;SDS011;32313;48.722;9.362;2023-02-26T06:07:34;19.87;;;18.57;;
46589;SDS011;32313;48.722;9.362;2023-02-26T06:10:00;18.60;;;17.40;;
46589;SDS011;32313;48.722;9.362;2023-02-26T06:12:26;18.33;;;16.97;;
46589;SDS011;32313;48.722;9.362;2023-02-26T06:14:52;18.07;;;16.97;;
46589;SDS011;32313;48.722;9.362;2023-02-26T06:17:18;18.23;;;16.73;;
46589;SDS011;32313;48.722;9.362;2023-02-26T06:19:44;17.87;;;16.60;;
46589;SDS011;32313;48.722;9.362;2023-02-26T06:22:09;18.73;;;17.50;;
46589;SDS011;32313;48.722;9.362;2023-02-26T06:24:35;18.03;;;16.67;;
46589;SDS011;32313;48.722;9.362;2023-02-26T06:27:01;18.57;;;17.37;;
46589;SDS011;32313;48.722;9.362;2023-02-26T06:29:26;19.40;;;18.00;;
46589;SDS011;32313;48.722;9.362;2023-02-26T06:31:52;19.23;;;17.60;;
46589;SDS011;32313;48.722;9.362;2023-02-26T06:34:18;17.13;;;16.03;;
46589;SDS011;32313;48.722;9.362;2023-02-26T06:36:43;19.80;;;18.30;;
46589;SDS011;32313;48.722;9.362;2023-02-26T06:39:09;20.07;;;18.40;;
46589;SDS011;32313;48.722;9.362;2023-02-26T06:41:36;19.70;;;18.20;;
46589;SDS011;32313;48.722;9.362;2023-02-26T06:44:02;18.40;;;17.07;;
46589;SDS011;32313;48.722;9.362;2023-02-26T06:46:28;21.70;;;20.07;;
46589;SDS011;32313;48.722;9.362;2023-02-26T06:48:53;20.20;;;18.73;;
46589;SDS011;32313;48.722;9.362;2023-02-26T06:51:19;22.20;;;20.63;;
46589;SDS011;32313;48.722;9.362;2023-02-26T06:53:45;21.67;;;20.27;;
46589;SDS011;32313;48.722;9.362;2023-02-26T06:56:10;19.67;;;18.27;;
46589;SDS011;32313;48.722;9.362;2023-02-26T06:58:36;19.23;;;18.03;;
46589;SDS011;32313;48.722;9.362;2023-02-26T07:01:02;19.57;;;18.37;;
46589;SDS011;32313;48.722;9.362;2023-02-26T07:03:29;17.83;;;16.73;;
46589;SDS011;32313;48.722;9.362;2023-02-26T07:05:55;18.40;;;17.10;;
46589;SDS011;32313;48.722;9.362;2023-02-26T07:08:20;21.37;;;19.40;;
46589;SDS011;32313;48.722;9.362;2023-02-26T07:10:48;18.60;;;17.40;;
46589;SDS011;32313;48.722;9.362;2023-02-26T07:13:15;17.27;;;15.87;;
46589;SDS011;32313;48.722;9.362;2023-02-26T07:15:41;16.27;;;15.23;;
46589;SDS011;32313;48.722;9.362;2023-02-26T07:18:07;16.80;;;15.63;;
46589;SDS011;32313;48.722;9.362;2023-02-26T07:20:32;16.30;;;14.87;;
46589;SDS011;32313;48.722;9.362;2023-02-26T07:22:58;16.13;;;14.67;;
46589;SDS011;32313;48.722;9.362;2023-02-26T07:25:24;16.07;;;14.90;;
46589;SDS011;32313;48.722;9.362;2023-02-26T07:27:50;15.83;;;14.27;;
46589;SDS011;32313;48.722;9.362;2023-02-26T07:30:16;14.07;;;13.03;;
46589;SDS011;32313;48.722;9.362;2023-02-26T07:32:42;14.50;;;13.30;;
46589;SDS011;32313;48.722;9.362;2023-02-26T07:35:08;13.23;;;12.43;;
46589;SDS011;32313;48.722;9.362;2023-02-26T07:37:34;13.37;;;12.37;;
46589;SDS011;32313;48.722;9.362;2023-02-26T07:39:59;13.23;;;12.23;;
46589;SDS011;32313;48.722;9.362;2023-02-26T07:42:25;13.60;;;12.50;;
46589;SDS011;32313;48.722;9.362;2023-02-26T07:44:51;13.37;;;12.20;;
46589;SDS011;32313;48.722;9.362;2023-02-26T07:47:17;13.70;;;12.60;;
46589;SDS011;32313;48.722;9.362;2023-02-26T07:49:43;12.67;;;11.77;;
46589;SDS011;32313;48.722;9.362;2023-02-26T07:52:08;12.67;;;11.80;;
46589;SDS011;32313;48.722;9.362;2023-02-26T07:54:34;12.33;;;11.53;;
46589;SDS011;32313;48.722;9.362;2023-02-26T07:57:00;12.50;;;11.53;;
46589;SDS011;32313;48.722;9.362;2023-02-26T07:59:26;12.40;;;11.50;;
46589;SDS011;32313;48.722;9.362;2023-02-26T08:01:52;11.67;;;10.77;;
46589;SDS011;32313;48.722;9.362;2023-02-26T08:04:18;12.20;;;11.13;;
46589;SDS011;32313;48.722;9.362;2023-02-26T08:06:43;11.53;;;10.73;;
46589;SDS011;32313;48.722;9.362;2023-02-26T08:09:10;11.80;;;10.70;;
46589;SDS011;32313;48.722;9.362;2023-02-26T08:11:35;9.77;;;9.17;;
46589;SDS011;32313;48.722;9.362;2023-02-26T08:14:05;10.53;;;9.70;;
46589;SDS011;32313;48.722;9.362;2023-02-26T08:16:31;10.03;;;9.27;;
46589;SDS011;32313;48.722;9.362;2023-02-26T08:18:56;8.50;;;7.80;;
46589;SDS011;32313;48.722;9.362;2023-02-26T08:21:22;8.63;;;8.00;;
46589;SDS011;32313;48.722;9.362;2023-02-26T08:23:48;8.20;;;7.60;;
46589;SDS011;32313;48.722;9.362;2023-02-26T08:26:16;8.63;;;7.53;;
46589;SDS011;32313;48.722;9.362;2023-02-26T08:28:42;7.57;;;7.07;;
46589;SDS011;32313;48.722;9.362;2023-02-26T08:31:08;8.73;;;8.13;;
46589;SDS011;32313;48.722;9.362;2023-02-26T08:33:33;8.40;;;7.70;;
46589;SDS011;32313;48.722;9.362;2023-02-26T08:35:59;9.03;;;8.33;;
46589;SDS011;32313;48.722;9.362;2023-02-26T08:38:26;8.70;;;8.30;;
46589;SDS011;32313;48.722;9.362;2023-02-26T08:40:52;8.90;;;8.20;;
46589;SDS011;32313;48.722;9.362;2023-02-26T08:43:19;8.73;;;8.20;;
46589;SDS011;32313;48.722;9.362;2023-02-26T08:45:45;10.87;;;10.07;;
46589;SDS011;32313;48.722;9.362;2023-02-26T08:48:11;9.63;;;8.83;;
46589;SDS011;32313;48.722;9.362;2023-02-26T08:50:37;10.43;;;9.47;;
46589;SDS011;32313;48.722;9.362;2023-02-26T08:53:04;9.43;;;8.73;;
46589;SDS011;32313;48.722;9.362;2023-02-26T08:55:31;9.07;;;8.57;;
46589;SDS011;32313;48.722;9.362;2023-02-26T08:57:57;9.10;;;8.40;;
46589;SDS011;32313;48.722;9.362;2023-02-26T09:00:23;9.30;;;8.70;;
46589;SDS011;32313;48.722;9.362;2023-02-26T09:02:48;8.83;;;8.30;;
46589;SDS011;32313;48.722;9.362;2023-02-26T09:05:14;9.50;;;8.80;;
46589;SDS011;32313;48.722;9.362;2023-02-26T09:07:41;9.80;;;9.00;;
46589;SDS011;32313;48.722;9.362;2023-02-26T09:10:09;9.73;;;8.83;;
46589;SDS011;32313;48.722;9.362;2023-02-26T09:12:36;8.90;;;8.30;;
46589;SDS011;32313;48.722;9.362;2023-02-26T09:15:02;10.00;;;9.20;;
46589;SDS011;32313;48.722;9.362;2023-02-26T09:17:30;9.20;;;8.50;;
46589;SDS011;32313;48.722;9.362;2023-02-26T09:19:56;10.07;;;9.30;;
46589;SDS011;32313;48.722;9.362;2023-02-26T09:22:22;10.43;;;9.73;;
46589;SDS011;32313;48.722;9.362;2023-02-26T09:24:48;9.63;;;9.13;;
46589;SDS011;32313;48.722;9.362;2023-02-26T09:27:13;11.10;;;10.40;;
46589;SDS011;32313;48.722;9.362;2023-02-26T09:29:39;10.27;;;9.60;;
46589;SDS011;32313;48.722;9.362;2023-02-26T09:32:05;10.67;;;9.90;;
46589;SDS011;32313;48.722;9.362;2023-02-26T09:34:36;10.33;;;9.43;;
46589;SDS011;32313;48.722;9.362;2023-02-26T09:37:06;9.57;;;8.97;;
46589;SDS011;32313;48.722;9.362;2023-02-26T09:39:32;10.13;;;9.43;;
46589;SDS011;32313;48.722;9.362;2023-02-26T09:44:41;9.07;;;8.40;;
46589;SDS011;32313;48.722;9.362;2023-02-26T09:47:16;10.57;;;9.73;;
46589;SDS011;32313;48.722;9.362;2023-02-26T09:49:59;9.97;;;9.17;;
46589;SDS011;32313;48.722;9.362;2023-02-26T09:55:14;9.83;;;9.23;;
46589;SDS011;32313;48.722;9.362;2023-02-26T09:57:46;9.40;;;8.80;;
46589;SDS011;32313;48.722;9.362;2023-02-26T10:00:25;8.70;;;7.97;;
46589;SDS011;32313;48.722;9.362;2023-02-26T10:03:08;8.00;;;7.50;;
46589;SDS011;32313;48.722;9.362;2023-02-26T10:08:14;9.40;;;8.60;;
46589;SDS011;32313;48.722;9.362;2023-02-26T10:16:17;9.90;;;9.20;;
46589;SDS011;32313;48.722;9.362;2023-02-26T10:19:31;10.30;;;9.47;;
46589;SDS011;32313;48.722;9.362;2023-02-26T10:24:31;10.60;;;9.70;;
46589;SDS011;32313;48.722;9.362;2023-02-26T10:27:05;11.27;;;10.47;;
46589;SDS011;32313;48.722;9.362;2023-02-26T10:29:38;10.67;;;9.90;;
46589;SDS011;32313;48.722;9.362;2023-02-26T10:32:27;9.70;;;9.07;;
46589;SDS011;32313;48.722;9.362;2023-02-26T10:35:19;10.60;;;9.90;;
46589;SDS011;32313;48.722;9.362;2023-02-26T10:37:51;10.27;;;9.57;;
46589;SDS011;32313;48.722;9.362;2023-02-26T10:43:57;9.40;;;8.90;;
46589;SDS011;32313;48.722;9.362;2023-02-26T10:52:22;10.03;;;9.47;;
46589;SDS011;32313;48.722;9.362;2023-02-26T10:54:59;9.67;;;9.00;;
46589;SDS011;32313;48.722;9.362;2023-02-26T10:57:50;8.97;;;8.27;;
46589;SDS011;32313;48.722;9.362;2023-02-26T11:00:30;8.17;;;7.60;;
46589;SDS011;32313;48.722;9.362;2023-02-26T11:02:59;8.10;;;7.63;;
46589;SDS011;32313;48.722;9.362;2023-02-26T11:05:28;8.30;;;7.80;;
46589;SDS011;32313;48.722;9.362;2023-02-26T11:07:56;9.37;;;8.60;;
46589;SDS011;32313;48.722;9.362;2023-02-26T11:10:39;7.60;;;7.17;;
46589;SDS011;32313;48.722;9.362;2023-02-26T11:13:09;7.53;;;7.03;;
46589;SDS011;32313;48.722;9.362;2023-02-26T11:15:35;7.43;;;6.93;;
46589;SDS011;32313;48.722;9.362;2023-02-26T11:18:01;7.10;;;6.70;;
46589;SDS011;32313;48.722;9.362;2023-02-26T11:20:29;7.17;;;6.67;;
46589;SDS011;32313;48.722;9.362;2023-02-26T11:23:06;6.50;;;6.10;;
46589;SDS011;32313;48.722;9.362;2023-02-26T11:25:36;7.40;;;6.90;;
46589;SDS011;32313;48.722;9.362;2023-02-26T11:28:05;7.40;;;7.00;;
46589;SDS011;32313;48.722;9.362;2023-02-26T11:30:42;7.47;;;6.97;;
46589;SDS011;32313;48.722;9.362;2023-02-26T11:33:33;8.17;;;7.67;;
46589;SDS011;32313;48.722;9.362;2023-02-26T11:36:00;10.70;;;9.70;;
46589;SDS011;32313;48.722;9.362;2023-02-26T11:38:30;8.60;;;7.97;;
46589;SDS011;32313;48.722;9.362;2023-02-26T11:40:57;7.93;;;7.23;;
46589;SDS011;32313;48.722;9.362;2023-02-26T11:43:32;7.90;;;7.40;;
46589;SDS011;32313;48.722;9.362;2023-02-26T11:46:12;7.00;;;6.60;;
46589;SDS011;32313;48.722;9.362;2023-02-26T11:48:47;6.47;;;6.17;;
46589;SDS011;32313;48.722;9.362;2023-02-26T11:51:18;7.40;;;6.90;;
46589;SDS011;32313;48.722;9.362;2023-02-26T11:56:14;7.83;;;7.33;;
46589;SDS011;32313;48.722;9.362;2023-02-26T11:58:50;7.40;;;7.00;;
46589;SDS011;32313;48.722;9.362;2023-02-26T12:01:17;7.00;;;6.60;;
46589;SDS011;32313;48.722;9.362;2023-02-26T12:03:43;7.07;;;6.77;;
46589;SDS011;32313;48.722;9.362;2023-02-26T12:06:15;7.10;;;6.70;;
46589;SDS011;32313;48.722;9.362;2023-02-26T12:08:42;7.37;;;6.97;;
46589;SDS011;32313;48.722;9.362;2023-02-26T12:19:48;7.20;;;6.80;;
46589;SDS011;32313;48.722;9.362;2023-02-26T12:28:37;7.73;;;7.33;;
46589;SDS011;32313;48.722;9.362;2023-02-26T12:36:32;7.00;;;6.60;;
46589;SDS011;32313;48.722;9.362;2023-02-26T12:50:08;7.40;;;7.00;;
46589;SDS011;32313;48.722;9.362;2023-02-26T12:52:47;6.73;;;6.43;;
46589;SDS011;32313;48.722;9.362;2023-02-26T13:00:26;6.53;;;6.23;;
46589;SDS011;32313;48.722;9.362;2023-02-26T13:06:15;6.40;;;6.10;;
46589;SDS011;32313;48.722;9.362;2023-02-26T13:16:48;8.40;;;7.87;;
46589;SDS011;32313;48.722;9.362;2023-02-26T13:19:33;7.03;;;6.73;;
46589;SDS011;32313;48.722;9.362;2023-02-26T13:22:11;7.73;;;7.23;;
46589;SDS011;32313;48.722;9.362;2023-02-26T13:27:28;6.93;;;6.60;;
46589;SDS011;32313;48.722;9.362;2023-02-26T13:30:02;6.50;;;6.20;;
46589;SDS011;32313;48.722;9.362;2023-02-26T13:32:47;7.37;;;6.87;;
46589;SDS011;32313;48.722;9.362;2023-02-26T13:35:18;7.23;;;6.83;;
46589;SDS011;32313;48.722;9.362;2023-02-26T13:37:50;7.20;;;6.70;;
46589;SDS011;32313;48.722;9.362;2023-02-26T13:41:20;6.60;;;6.30;;
46589;SDS011;32313;48.722;9.362;2023-02-26T14:14:32;6.50;;;6.00;;
46589;SDS011;32313;48.722;9.362;2023-02-26T14:19:27;5.40;;;5.00;;
46589;SDS011;32313;48.722;9.362;2023-02-26T14:22:01;5.60;;;5.30;;
46589;SDS011;32313;48.722;9.362;2023-02-26T14:32:29;5.33;;;5.13;;
46589;SDS011;32313;48.722;9.362;2023-02-26T14:35:14;4.40;;;4.20;;
46589;SDS011;32313;48.722;9.362;2023-02-26T14:37:55;4.70;;;4.50;;
46589;SDS011;32313;48.722;9.362;2023-02-26T14:40:39;4.20;;;4.00;;
46589;SDS011;32313;48.722;9.362;2023-02-26T14:46:07;5.03;;;4.83;;
46589;SDS011;32313;48.722;9.362;2023-02-26T14:48:35;5.10;;;4.90;;
46589;SDS011;32313;48.722;9.362;2023-02-26T14:56:23;5.37;;;5.07;;
46589;SDS011;32313;48.722;9.362;2023-02-26T15:13:13;5.33;;;5.10;;
46589;SDS011;32313;48.722;9.362;2023-02-26T15:21:07;5.83;;;5.53;;
46589;SDS011;32313;48.722;9.362;2023-02-26T15:23:53;6.30;;;5.90;;
46589;SDS011;32313;48.722;9.362;2023-02-26T15:26:25;7.90;;;7.30;;
46589;SDS011;32313;48.722;9.362;2023-02-26T15:28:55;7.03;;;6.53;;
46589;SDS011;32313;48.722;9.362;2023-02-26T15:31:38;6.53;;;6.13;;
46589;SDS011;32313;48.722;9.362;2023-02-26T15:34:11;6.40;;;6.10;;
46589;SDS011;32313;48.722;9.362;2023-02-26T15:36:42;6.53;;;6.23;;
46589;SDS011;32313;48.722;9.362;2023-02-26T15:39:09;5.70;;;5.40;;
46589;SDS011;32313;48.722;9.362;2023-02-26T15:41:37;6.60;;;6.30;;
46589;SDS011;32313;48.722;9.362;2023-02-26T15:44:10;6.43;;;6.03;;
46589;SDS011;32313;48.722;9.362;2023-02-26T15:46:41;6.30;;;5.83;;
46589;SDS011;32313;48.722;9.362;2023-02-26T15:49:29;6.70;;;6.37;;
46589;SDS011;32313;48.722;9.362;2023-02-26T15:51:59;6.53;;;6.13;;
46589;SDS011;32313;48.722;9.362;2023-02-26T15:54:38;6.60;;;6.27;;
46589;SDS011;32313;48.722;9.362;2023-02-26T15:57:12;6.50;;;6.10;;
46589;SDS011;32313;48.722;9.362;2023-02-26T15:59:43;6.67;;;6.17;;
46589;SDS011;32313;48.722;9.362;2023-02-26T16:02:11;7.00;;;6.63;;
46589;SDS011;32313;48.722;9.362;2023-02-26T16:04:44;6.50;;;6.20;;
46589;SDS011;32313;48.722;9.362;2023-02-26T16:07:10;7.30;;;6.90;;
46589;SDS011;32313;48.722;9.362;2023-02-26T16:09:41;8.10;;;7.60;;
46589;SDS011;32313;48.722;9.362;2023-02-26T16:12:17;7.20;;;6.80;;
46589;SDS011;32313;48.722;9.362;2023-02-26T16:14:52;7.00;;;6.60;;
46589;SDS011;32313;48.722;9.362;2023-02-26T16:17:26;7.53;;;7.13;;
46589;SDS011;32313;48.722;9.362;2023-02-26T16:19:58;7.17;;;6.87;;
46589;SDS011;32313;48.722;9.362;2023-02-26T16:22:32;7.57;;;7.17;;
46589;SDS011;32313;48.722;9.362;2023-02-26T16:25:03;8.27;;;7.73;;
46589;SDS011;32313;48.722;9.362;2023-02-26T16:27:30;7.53;;;7.03;;
46589;SDS011;32313;48.722;9.362;2023-02-26T16:29:58;7.00;;;6.60;;
46589;SDS011;32313;48.722;9.362;2023-02-26T16:32:26;7.20;;;6.80;;
46589;SDS011;32313;48.722;9.362;2023-02-26T16:34:55;7.00;;;6.70;;
46589;SDS011;32313;48.722;9.362;2023-02-26T16:40:03;7.63;;;7.23;;
46589;SDS011;32313;48.722;9.362;2023-02-26T16:42:50;7.80;;;7.40;;
46589;SDS011;32313;48.722;9.362;2023-02-26T16:48:17;7.93;;;7.33;;
46589;SDS011;32313;48.722;9.362;2023-02-26T16:50:56;7.53;;;7.23;;
46589;SDS011;32313;48.722;9.362;2023-02-26T16:53:36;8.20;;;7.47;;
46589;SDS011;32313;48.722;9.362;2023-02-26T16:56:14;7.97;;;7.47;;
46589;SDS011;32313;48.722;9.362;2023-02-26T16:58:44;9.10;;;8.47;;
46589;SDS011;32313;48.722;9.362;2023-02-26T17:01:18;9.30;;;8.80;;
46589;SDS011;32313;48.722;9.362;2023-02-26T17:03:47;8.20;;;7.80;;
46589;SDS011;32313;48.722;9.362;2023-02-26T17:06:20;7.87;;;7.53;;
46589;SDS011;32313;48.722;9.362;2023-02-26T17:08:51;7.80;;;7.37;;
46589;SDS011;32313;48.722;9.362;2023-02-26T17:11:31;8.20;;;7.80;;
46589;SDS011;32313;48.722;9.362;2023-02-26T17:16:34;8.30;;;7.77;;
46589;SDS011;32313;48.722;9.362;2023-02-26T17:19:00;8.63;;;8.10;;
46589;SDS011;32313;48.722;9.362;2023-02-26T17:21:27;8.13;;;7.73;;
46589;SDS011;32313;48.722;9.362;2023-02-26T17:23:53;7.77;;;7.37;;
46589;SDS011;32313;48.722;9.362;2023-02-26T17:26:19;9.40;;;9.00;;
46589;SDS011;32313;48.722;9.362;2023-02-26T17:28:45;8.50;;;8.10;;
46589;SDS011;32313;48.722;9.362;2023-02-26T17:31:11;8.20;;;7.80;;
46589;SDS011;32313;48.722;9.362;2023-02-26T17:33:39;8.40;;;7.90;;
46589;SDS011;32313;48.722;9.362;2023-02-26T17:36:09;8.40;;;8.00;;
46589;SDS011;32313;48.722;9.362;2023-02-26T17:38:38;8.40;;;8.00;;
46589;SDS011;32313;48.722;9.362;2023-02-26T17:41:07;8.17;;;7.70;;
46589;SDS011;32313;48.722;9.362;2023-02-26T17:43:33;8.60;;;8.20;;
46589;SDS011;32313;48.722;9.362;2023-02-26T17:45:59;8.50;;;8.00;;
46589;SDS011;32313;48.722;9.362;2023-02-26T17:48:25;9.10;;;8.60;;
46589;SDS011;32313;48.722;9.362;2023-02-26T17:53:19;9.10;;;8.60;;
46589;SDS011;32313;48.722;9.362;2023-02-26T17:55:47;9.13;;;8.53;;
46589;SDS011;32313;48.722;9.362;2023-02-26T17:58:17;8.97;;;8.47;;
46589;SDS011;32313;48.722;9.362;2023-02-26T18:00:50;9.40;;;8.90;;
46589;SDS011;32313;48.722;9.362;2023-02-26T18:03:17;9.27;;;8.77;;
46589;SDS011;32313;48.722;9.362;2023-02-26T18:05:44;10.17;;;9.57;;
46589;SDS011;32313;48.722;9.362;2023-02-26T18:08:17;10.30;;;9.70;;
46589;SDS011;32313;48.722;9.362;2023-02-26T18:10:48;9.70;;;9.10;;
46589;SDS011;32313;48.722;9.362;2023-02-26T18:13:14;10.27;;;9.67;;
46589;SDS011;32313;48.722;9.362;2023-02-26T18:15:40;9.70;;;9.20;;
46589;SDS011;32313;48.722;9.362;2023-02-26T18:18:08;10.00;;;9.20;;
46589;SDS011;32313;48.722;9.362;2023-02-26T18:20:35;10.00;;;9.20;;